sensor_id;sensor_type;location;lat;lon;timestamp;P1;durP1;ratioP1;P2;durP2;ratioP2
2019;SDS011;1014;51.960;8.542;2024-01-30T00:02:15;27.77;;;25.65;;
2019;SDS011;1014;51.960;8.542;2024-01-30T00:04:43;28.85;;;26.55;;
2019;SDS011;1014;51.960;8.542;2024-01-30T00:07:09;28.17;;;26.17;;
2019;SDS011;1014;51.960;8.542;2024-01-30T00:09:39;28.02;;;25.58;;
2019;SDS011;1014;51.960;8.542;2024-01-30T00:12:06;28.70;;;26.33;;
2019;SDS011;1014;51.960;8.542;2024-01-30T00:14:33;28.20;;;26.00;;
2019;SDS011;1014;51.960;8.542;2024-01-30T00:17:00;28.15;;;25.92;;
2019;SDS011;1014;51.960;8.542;2024-01-30T00:19:27;26.38;;;24.58;;
2019;SDS011;1014;51.960;8.542;2024-01-30T00:21:54;29.65;;;27.45;;
2019;SDS011;1014;51.960;8.542;2024-01-30T00:24:22;26.92;;;24.75;;
2019;SDS011;1014;51.960;8.542;2024-01-30T00:26:51;28.65;;;26.40;;
2019;SDS011;1014;51.960;8.542;2024-01-30T00:29:19;26.23;;;24.35;;
2019;SDS011;1014;51.960;8.542;2024-01-30T00:31:47;28.75;;;26.65;;
2019;SDS011;1014;51.960;8.542;2024-01-30T00:34:15;28.55;;;26.50;;
2019;SDS011;1014;51.960;8.542;2024-01-30T00:36:42;27.13;;;25.30;;
2019;SDS011;1014;51.960;8.542;2024-01-30T00:39:09;28.23;;;26.23;;
2019;SDS011;1014;51.960;8.542;2024-01-30T00:41:37;27.88;;;25.98;;
2019;SDS011;1014;51.960;8.542;2024-01-30T00:44:05;27.25;;;25.45;;
2019;SDS011;1014;51.960;8.542;2024-01-30T00:46:32;27.70;;;25.70;;
2019;SDS011;1014;51.960;8.542;2024-01-30T00:49:00;28.08;;;25.58;;
2019;SDS011;1014;51.960;8.542;2024-01-30T00:51:27;26.33;;;24.52;;
2019;SDS011;1014;51.960;8.542;2024-01-30T00:53:54;28.50;;;26.30;;
2019;SDS011;1014;51.960;8.542;2024-01-30T00:56:22;27.40;;;25.50;;
2019;SDS011;1014;51.960;8.542;2024-01-30T00:58:49;26.30;;;24.50;;
2019;SDS011;1014;51.960;8.542;2024-01-30T01:01:18;27.48;;;25.38;;
2019;SDS011;1014;51.960;8.542;2024-01-30T01:03:46;28.58;;;26.38;;
2019;SDS011;1014;51.960;8.542;2024-01-30T01:06:13;29.73;;;27.63;;
2019;SDS011;1014;51.960;8.542;2024-01-30T01:08:40;28.65;;;26.55;;
2019;SDS011;1014;51.960;8.542;2024-01-30T01:11:07;27.08;;;25.08;;
2019;SDS011;1014;51.960;8.542;2024-01-30T01:13:35;28.45;;;26.35;;
2019;SDS011;1014;51.960;8.542;2024-01-30T01:16:02;30.70;;;28.10;;
2019;SDS011;1014;51.960;8.542;2024-01-30T01:18:31;29.02;;;26.88;;
2019;SDS011;1014;51.960;8.542;2024-01-30T01:20:59;29.15;;;27.02;;
2019;SDS011;1014;51.960;8.542;2024-01-30T01:23:26;29.23;;;26.92;;
2019;SDS011;1014;51.960;8.542;2024-01-30T01:25:54;28.58;;;26.48;;
2019;SDS011;1014;51.960;8.542;2024-01-30T01:28:21;29.60;;;27.25;;
2019;SDS011;1014;51.960;8.542;2024-01-30T01:30:48;29.67;;;26.95;;
2019;SDS011;1014;51.960;8.542;2024-01-30T01:33:16;31.17;;;28.50;;
2019;SDS011;1014;51.960;8.542;2024-01-30T01:35:46;28.70;;;26.63;;
2019;SDS011;1014;51.960;8.542;2024-01-30T01:38:13;29.40;;;27.10;;
2019;SDS011;1014;51.960;8.542;2024-01-30T01:40:41;29.05;;;26.95;;
2019;SDS011;1014;51.960;8.542;2024-01-30T01:43:09;28.80;;;26.60;;
2019;SDS011;1014;51.960;8.542;2024-01-30T01:45:36;29.45;;;27.15;;
2019;SDS011;1014;51.960;8.542;2024-01-30T01:48:04;31.10;;;28.53;;
2019;SDS011;1014;51.960;8.542;2024-01-30T01:50:32;28.17;;;25.97;;
2019;SDS011;1014;51.960;8.542;2024-01-30T01:53:00;29.35;;;27.15;;
2019;SDS011;1014;51.960;8.542;2024-01-30T01:55:29;29.05;;;26.63;;
2019;SDS011;1014;51.960;8.542;2024-01-30T01:57:58;28.17;;;26.08;;
2019;SDS011;1014;51.960;8.542;2024-01-30T02:00:25;28.95;;;26.58;;
2019;SDS011;1014;51.960;8.542;2024-01-30T02:02:53;27.92;;;25.80;;
2019;SDS011;1014;51.960;8.542;2024-01-30T02:05:21;28.85;;;26.75;;
2019;SDS011;1014;51.960;8.542;2024-01-30T02:07:49;27.95;;;25.70;;
2019;SDS011;1014;51.960;8.542;2024-01-30T02:10:18;27.63;;;25.70;;
2019;SDS011;1014;51.960;8.542;2024-01-30T02:12:45;28.65;;;26.38;;
2019;SDS011;1014;51.960;8.542;2024-01-30T02:15:13;28.45;;;26.35;;
2019;SDS011;1014;51.960;8.542;2024-01-30T02:17:40;28.80;;;26.65;;
2019;SDS011;1014;51.960;8.542;2024-01-30T02:20:08;27.42;;;25.38;;
2019;SDS011;1014;51.960;8.542;2024-01-30T02:22:36;28.63;;;26.60;;
2019;SDS011;1014;51.960;8.542;2024-01-30T02:25:04;30.50;;;28.25;;
2019;SDS011;1014;51.960;8.542;2024-01-30T02:27:31;27.98;;;26.10;;
2019;SDS011;1014;51.960;8.542;2024-01-30T02:29:58;27.58;;;25.52;;
2019;SDS011;1014;51.960;8.542;2024-01-30T02:32:25;28.17;;;26.02;;
2019;SDS011;1014;51.960;8.542;2024-01-30T02:34:53;28.63;;;26.50;;
2019;SDS011;1014;51.960;8.542;2024-01-30T02:37:21;28.30;;;26.27;;
2019;SDS011;1014;51.960;8.542;2024-01-30T02:39:49;27.92;;;25.73;;
2019;SDS011;1014;51.960;8.542;2024-01-30T02:42:16;29.08;;;26.83;;
2019;SDS011;1014;51.960;8.542;2024-01-30T02:44:43;27.60;;;25.63;;
2019;SDS011;1014;51.960;8.542;2024-01-30T02:47:10;30.20;;;27.70;;
2019;SDS011;1014;51.960;8.542;2024-01-30T02:49:37;28.75;;;26.50;;
2019;SDS011;1014;51.960;8.542;2024-01-30T02:52:04;28.05;;;25.85;;
2019;SDS011;1014;51.960;8.542;2024-01-30T02:54:32;27.00;;;25.20;;
2019;SDS011;1014;51.960;8.542;2024-01-30T02:57:00;28.80;;;26.27;;
2019;SDS011;1014;51.960;8.542;2024-01-30T02:59:28;28.02;;;25.98;;
2019;SDS011;1014;51.960;8.542;2024-01-30T03:01:58;29.70;;;27.23;;
2019;SDS011;1014;51.960;8.542;2024-01-30T03:04:25;27.00;;;25.05;;
2019;SDS011;1014;51.960;8.542;2024-01-30T03:06:55;28.48;;;26.20;;
2019;SDS011;1014;51.960;8.542;2024-01-30T03:09:22;29.08;;;26.65;;
2019;SDS011;1014;51.960;8.542;2024-01-30T03:11:50;27.85;;;25.88;;
2019;SDS011;1014;51.960;8.542;2024-01-30T03:14:18;27.83;;;25.92;;
2019;SDS011;1014;51.960;8.542;2024-01-30T03:16:45;27.80;;;25.70;;
2019;SDS011;1014;51.960;8.542;2024-01-30T03:19:13;27.88;;;25.70;;
2019;SDS011;1014;51.960;8.542;2024-01-30T03:21:40;27.85;;;25.77;;
2019;SDS011;1014;51.960;8.542;2024-01-30T03:24:07;28.10;;;25.95;;
2019;SDS011;1014;51.960;8.542;2024-01-30T03:26:35;28.98;;;26.88;;
2019;SDS011;1014;51.960;8.542;2024-01-30T03:29:02;29.48;;;27.20;;
2019;SDS011;1014;51.960;8.542;2024-01-30T03:31:31;29.40;;;27.38;;
2019;SDS011;1014;51.960;8.542;2024-01-30T03:33:58;29.88;;;27.25;;
2019;SDS011;1014;51.960;8.542;2024-01-30T03:36:25;28.58;;;26.30;;
2019;SDS011;1014;51.960;8.542;2024-01-30T03:38:52;28.42;;;26.40;;
2019;SDS011;1014;51.960;8.542;2024-01-30T03:41:19;30.65;;;28.38;;
2019;SDS011;1014;51.960;8.542;2024-01-30T03:43:46;30.38;;;28.08;;
2019;SDS011;1014;51.960;8.542;2024-01-30T03:46:14;30.23;;;27.83;;
2019;SDS011;1014;51.960;8.542;2024-01-30T03:48:44;27.98;;;25.98;;
2019;SDS011;1014;51.960;8.542;2024-01-30T03:51:12;29.43;;;27.33;;
2019;SDS011;1014;51.960;8.542;2024-01-30T03:53:40;31.42;;;29.00;;
2019;SDS011;1014;51.960;8.542;2024-01-30T03:56:08;27.38;;;25.58;;
2019;SDS011;1014;51.960;8.542;2024-01-30T03:58:35;29.60;;;27.42;;
2019;SDS011;1014;51.960;8.542;2024-01-30T04:01:04;29.45;;;27.02;;
2019;SDS011;1014;51.960;8.542;2024-01-30T04:03:32;28.90;;;26.52;;
2019;SDS011;1014;51.960;8.542;2024-01-30T04:06:00;30.83;;;28.42;;
2019;SDS011;1014;51.960;8.542;2024-01-30T04:08:27;30.67;;;28.00;;
2019;SDS011;1014;51.960;8.542;2024-01-30T04:10:54;29.95;;;27.85;;
2019;SDS011;1014;51.960;8.542;2024-01-30T04:13:21;31.08;;;28.58;;
2019;SDS011;1014;51.960;8.542;2024-01-30T04:15:48;30.48;;;28.10;;
2019;SDS011;1014;51.960;8.542;2024-01-30T04:18:15;30.85;;;27.98;;
2019;SDS011;1014;51.960;8.542;2024-01-30T04:20:42;29.77;;;27.65;;
2019;SDS011;1014;51.960;8.542;2024-01-30T04:23:11;30.10;;;27.93;;
2019;SDS011;1014;51.960;8.542;2024-01-30T04:25:38;28.60;;;26.50;;
2019;SDS011;1014;51.960;8.542;2024-01-30T04:28:05;30.48;;;27.83;;
2019;SDS011;1014;51.960;8.542;2024-01-30T04:30:32;30.98;;;28.05;;
2019;SDS011;1014;51.960;8.542;2024-01-30T04:32:59;30.58;;;28.27;;
2019;SDS011;1014;51.960;8.542;2024-01-30T04:35:28;29.25;;;26.85;;
2019;SDS011;1014;51.960;8.542;2024-01-30T04:37:55;29.52;;;26.90;;
2019;SDS011;1014;51.960;8.542;2024-01-30T04:40:23;30.30;;;27.85;;
2019;SDS011;1014;51.960;8.542;2024-01-30T04:42:53;30.35;;;27.95;;
2019;SDS011;1014;51.960;8.542;2024-01-30T04:45:20;30.50;;;28.10;;
2019;SDS011;1014;51.960;8.542;2024-01-30T04:47:48;29.73;;;27.52;;
2019;SDS011;1014;51.960;8.542;2024-01-30T04:50:15;30.95;;;28.42;;
2019;SDS011;1014;51.960;8.542;2024-01-30T04:52:44;30.65;;;28.15;;
2019;SDS011;1014;51.960;8.542;2024-01-30T04:55:11;32.65;;;29.88;;
2019;SDS011;1014;51.960;8.542;2024-01-30T04:57:40;32.58;;;29.88;;
2019;SDS011;1014;51.960;8.542;2024-01-30T05:00:07;32.35;;;29.67;;
2019;SDS011;1014;51.960;8.542;2024-01-30T05:02:35;31.10;;;28.60;;
2019;SDS011;1014;51.960;8.542;2024-01-30T05:05:02;32.05;;;29.25;;
2019;SDS011;1014;51.960;8.542;2024-01-30T05:07:30;31.40;;;28.88;;
2019;SDS011;1014;51.960;8.542;2024-01-30T05:09:57;30.20;;;27.80;;
2019;SDS011;1014;51.960;8.542;2024-01-30T05:12:24;33.13;;;30.40;;
2019;SDS011;1014;51.960;8.542;2024-01-30T05:14:53;33.50;;;30.63;;
2019;SDS011;1014;51.960;8.542;2024-01-30T05:17:20;30.40;;;27.77;;
2019;SDS011;1014;51.960;8.542;2024-01-30T05:19:47;32.38;;;29.88;;
2019;SDS011;1014;51.960;8.542;2024-01-30T05:22:14;32.08;;;29.45;;
2019;SDS011;1014;51.960;8.542;2024-01-30T05:24:43;31.27;;;28.85;;
2019;SDS011;1014;51.960;8.542;2024-01-30T05:27:11;32.00;;;29.30;;
2019;SDS011;1014;51.960;8.542;2024-01-30T05:29:39;30.80;;;28.33;;
2019;SDS011;1014;51.960;8.542;2024-01-30T05:32:08;31.58;;;28.90;;
2019;SDS011;1014;51.960;8.542;2024-01-30T05:34:35;32.55;;;29.73;;
2019;SDS011;1014;51.960;8.542;2024-01-30T05:37:04;31.58;;;29.17;;
2019;SDS011;1014;51.960;8.542;2024-01-30T05:39:31;30.05;;;27.73;;
2019;SDS011;1014;51.960;8.542;2024-01-30T05:41:59;31.88;;;29.20;;
2019;SDS011;1014;51.960;8.542;2024-01-30T05:44:26;30.87;;;28.57;;
2019;SDS011;1014;51.960;8.542;2024-01-30T05:46:53;31.95;;;29.02;;
2019;SDS011;1014;51.960;8.542;2024-01-30T05:49:22;32.25;;;29.65;;
2019;SDS011;1014;51.960;8.542;2024-01-30T05:51:50;32.65;;;30.20;;
2019;SDS011;1014;51.960;8.542;2024-01-30T05:54:17;32.42;;;29.83;;
2019;SDS011;1014;51.960;8.542;2024-01-30T05:56:44;32.40;;;29.50;;
2019;SDS011;1014;51.960;8.542;2024-01-30T05:59:10;34.25;;;31.02;;
2019;SDS011;1014;51.960;8.542;2024-01-30T06:01:37;32.63;;;29.65;;
2019;SDS011;1014;51.960;8.542;2024-01-30T06:04:04;33.72;;;30.63;;
2019;SDS011;1014;51.960;8.542;2024-01-30T06:06:33;34.20;;;31.27;;
2019;SDS011;1014;51.960;8.542;2024-01-30T06:09:00;32.58;;;29.98;;
2019;SDS011;1014;51.960;8.542;2024-01-30T06:11:28;33.67;;;30.90;;
2019;SDS011;1014;51.960;8.542;2024-01-30T06:13:57;31.55;;;28.65;;
2019;SDS011;1014;51.960;8.542;2024-01-30T06:16:25;33.65;;;30.63;;
2019;SDS011;1014;51.960;8.542;2024-01-30T06:18:54;32.67;;;29.88;;
2019;SDS011;1014;51.960;8.542;2024-01-30T06:21:21;31.10;;;28.45;;
2019;SDS011;1014;51.960;8.542;2024-01-30T06:23:50;32.15;;;29.38;;
2019;SDS011;1014;51.960;8.542;2024-01-30T06:26:17;32.50;;;29.60;;
2019;SDS011;1014;51.960;8.542;2024-01-30T06:28:44;33.53;;;30.63;;
2019;SDS011;1014;51.960;8.542;2024-01-30T06:31:11;33.55;;;30.75;;
2019;SDS011;1014;51.960;8.542;2024-01-30T06:33:38;34.42;;;31.60;;
2019;SDS011;1014;51.960;8.542;2024-01-30T06:36:07;33.50;;;30.52;;
2019;SDS011;1014;51.960;8.542;2024-01-30T06:38:34;34.13;;;30.95;;
2019;SDS011;1014;51.960;8.542;2024-01-30T06:41:02;34.42;;;31.42;;
2019;SDS011;1014;51.960;8.542;2024-01-30T06:43:30;33.00;;;30.33;;
2019;SDS011;1014;51.960;8.542;2024-01-30T06:45:57;34.65;;;31.50;;
2019;SDS011;1014;51.960;8.542;2024-01-30T06:48:24;32.20;;;29.40;;
2019;SDS011;1014;51.960;8.542;2024-01-30T06:50:52;33.28;;;30.23;;
2019;SDS011;1014;51.960;8.542;2024-01-30T06:53:20;33.88;;;30.50;;
2019;SDS011;1014;51.960;8.542;2024-01-30T06:55:47;33.53;;;30.73;;
2019;SDS011;1014;51.960;8.542;2024-01-30T06:58:15;32.92;;;30.00;;
2019;SDS011;1014;51.960;8.542;2024-01-30T07:00:44;35.30;;;32.10;;
2019;SDS011;1014;51.960;8.542;2024-01-30T07:03:11;32.30;;;29.40;;
2019;SDS011;1014;51.960;8.542;2024-01-30T07:05:38;33.00;;;30.20;;
2019;SDS011;1014;51.960;8.542;2024-01-30T07:08:06;33.58;;;30.77;;
2019;SDS011;1014;51.960;8.542;2024-01-30T07:10:34;33.08;;;29.73;;
2019;SDS011;1014;51.960;8.542;2024-01-30T07:13:01;33.85;;;31.02;;
2019;SDS011;1014;51.960;8.542;2024-01-30T07:15:30;33.60;;;30.48;;
2019;SDS011;1014;51.960;8.542;2024-01-30T07:17:57;33.15;;;30.50;;
2019;SDS011;1014;51.960;8.542;2024-01-30T07:20:24;33.05;;;30.13;;
2019;SDS011;1014;51.960;8.542;2024-01-30T07:22:51;32.03;;;29.08;;
2019;SDS011;1014;51.960;8.542;2024-01-30T07:25:19;33.15;;;30.17;;
2019;SDS011;1014;51.960;8.542;2024-01-30T07:27:46;33.78;;;30.60;;
2019;SDS011;1014;51.960;8.542;2024-01-30T07:30:13;33.80;;;30.65;;
2019;SDS011;1014;51.960;8.542;2024-01-30T07:32:43;35.70;;;32.60;;
2019;SDS011;1014;51.960;8.542;2024-01-30T07:35:10;33.08;;;30.17;;
2019;SDS011;1014;51.960;8.542;2024-01-30T07:37:37;36.53;;;33.30;;
2019;SDS011;1014;51.960;8.542;2024-01-30T07:40:05;35.17;;;32.22;;
2019;SDS011;1014;51.960;8.542;2024-01-30T07:42:32;34.78;;;31.73;;
2019;SDS011;1014;51.960;8.542;2024-01-30T07:44:59;34.90;;;31.75;;
2019;SDS011;1014;51.960;8.542;2024-01-30T07:47:27;34.63;;;31.10;;
2019;SDS011;1014;51.960;8.542;2024-01-30T07:49:59;35.60;;;32.55;;
2019;SDS011;1014;51.960;8.542;2024-01-30T07:52:26;34.17;;;31.15;;
2019;SDS011;1014;51.960;8.542;2024-01-30T07:54:53;34.22;;;31.42;;
2019;SDS011;1014;51.960;8.542;2024-01-30T07:57:20;33.35;;;30.58;;
2019;SDS011;1014;51.960;8.542;2024-01-30T07:59:48;35.13;;;31.95;;
2019;SDS011;1014;51.960;8.542;2024-01-30T08:02:15;34.42;;;31.38;;
2019;SDS011;1014;51.960;8.542;2024-01-30T08:04:42;31.05;;;28.42;;
2019;SDS011;1014;51.960;8.542;2024-01-30T08:07:15;32.60;;;29.75;;
2019;SDS011;1014;51.960;8.542;2024-01-30T08:09:43;33.30;;;30.57;;
2019;SDS011;1014;51.960;8.542;2024-01-30T08:12:11;31.80;;;29.02;;
2019;SDS011;1014;51.960;8.542;2024-01-30T08:14:38;32.83;;;30.02;;
2019;SDS011;1014;51.960;8.542;2024-01-30T08:17:06;32.65;;;29.77;;
2019;SDS011;1014;51.960;8.542;2024-01-30T08:19:35;32.28;;;29.42;;
2019;SDS011;1014;51.960;8.542;2024-01-30T08:22:03;32.80;;;30.00;;
2019;SDS011;1014;51.960;8.542;2024-01-30T08:24:31;32.97;;;29.90;;
2019;SDS011;1014;51.960;8.542;2024-01-30T08:26:58;31.15;;;28.25;;
2019;SDS011;1014;51.960;8.542;2024-01-30T08:29:27;30.13;;;27.83;;
2019;SDS011;1014;51.960;8.542;2024-01-30T08:31:55;31.55;;;28.85;;
2019;SDS011;1014;51.960;8.542;2024-01-30T08:34:24;30.27;;;27.60;;
2019;SDS011;1014;51.960;8.542;2024-01-30T08:36:51;31.35;;;28.73;;
2019;SDS011;1014;51.960;8.542;2024-01-30T08:39:18;29.52;;;27.17;;
2019;SDS011;1014;51.960;8.542;2024-01-30T08:41:46;31.10;;;27.63;;
2019;SDS011;1014;51.960;8.542;2024-01-30T08:44:13;30.02;;;27.00;;
2019;SDS011;1014;51.960;8.542;2024-01-30T08:46:41;31.55;;;28.95;;
2019;SDS011;1014;51.960;8.542;2024-01-30T08:49:08;30.02;;;27.73;;
2019;SDS011;1014;51.960;8.542;2024-01-30T08:51:35;30.65;;;27.88;;
2019;SDS011;1014;51.960;8.542;2024-01-30T08:54:02;30.38;;;27.55;;
2019;SDS011;1014;51.960;8.542;2024-01-30T08:56:30;29.93;;;27.40;;
2019;SDS011;1014;51.960;8.542;2024-01-30T08:58:59;31.70;;;28.95;;
2019;SDS011;1014;51.960;8.542;2024-01-30T09:01:26;29.75;;;27.50;;
2019;SDS011;1014;51.960;8.542;2024-01-30T09:03:53;28.65;;;26.27;;
2019;SDS011;1014;51.960;8.542;2024-01-30T09:06:20;30.40;;;27.83;;
2019;SDS011;1014;51.960;8.542;2024-01-30T09:08:49;27.77;;;25.67;;
2019;SDS011;1014;51.960;8.542;2024-01-30T09:11:16;27.83;;;25.83;;
2019;SDS011;1014;51.960;8.542;2024-01-30T09:13:43;29.75;;;27.45;;
2019;SDS011;1014;51.960;8.542;2024-01-30T09:16:11;28.70;;;26.20;;
2019;SDS011;1014;51.960;8.542;2024-01-30T09:18:38;28.45;;;26.05;;
2019;SDS011;1014;51.960;8.542;2024-01-30T09:21:05;27.85;;;25.35;;
2019;SDS011;1014;51.960;8.542;2024-01-30T09:23:32;28.10;;;25.90;;
2019;SDS011;1014;51.960;8.542;2024-01-30T09:26:00;27.10;;;25.27;;
2019;SDS011;1014;51.960;8.542;2024-01-30T09:28:27;26.87;;;24.80;;
2019;SDS011;1014;51.960;8.542;2024-01-30T09:30:54;26.17;;;24.13;;
2019;SDS011;1014;51.960;8.542;2024-01-30T09:33:22;27.13;;;25.23;;
2019;SDS011;1014;51.960;8.542;2024-01-30T09:35:51;26.47;;;24.47;;
2019;SDS011;1014;51.960;8.542;2024-01-30T09:38:18;26.50;;;24.60;;
2019;SDS011;1014;51.960;8.542;2024-01-30T09:40:45;26.90;;;24.50;;
2019;SDS011;1014;51.960;8.542;2024-01-30T09:43:18;26.57;;;24.67;;
2019;SDS011;1014;51.960;8.542;2024-01-30T09:45:49;25.50;;;23.70;;
2019;SDS011;1014;51.960;8.542;2024-01-30T09:48:16;25.57;;;23.77;;
2019;SDS011;1014;51.960;8.542;2024-01-30T09:50:45;24.33;;;22.63;;
2019;SDS011;1014;51.960;8.542;2024-01-30T09:53:13;26.10;;;23.80;;
2019;SDS011;1014;51.960;8.542;2024-01-30T09:55:42;26.77;;;24.77;;
2019;SDS011;1014;51.960;8.542;2024-01-30T09:58:11;26.37;;;24.50;;
2019;SDS011;1014;51.960;8.542;2024-01-30T10:00:39;25.37;;;23.57;;
2019;SDS011;1014;51.960;8.542;2024-01-30T10:03:06;24.70;;;22.57;;
2019;SDS011;1014;51.960;8.542;2024-01-30T10:05:35;27.57;;;25.37;;
2019;SDS011;1014;51.960;8.542;2024-01-30T10:08:06;25.37;;;23.37;;
2019;SDS011;1014;51.960;8.542;2024-01-30T10:10:34;24.43;;;22.80;;
2019;SDS011;1014;51.960;8.542;2024-01-30T10:13:01;24.30;;;22.50;;
2019;SDS011;1014;51.960;8.542;2024-01-30T10:15:28;26.20;;;24.07;;
2019;SDS011;1014;51.960;8.542;2024-01-30T10:17:55;26.30;;;24.40;;
2019;SDS011;1014;51.960;8.542;2024-01-30T10:20:24;26.83;;;24.73;;
2019;SDS011;1014;51.960;8.542;2024-01-30T10:22:51;25.30;;;23.60;;
2019;SDS011;1014;51.960;8.542;2024-01-30T10:25:20;26.77;;;24.60;;
2019;SDS011;1014;51.960;8.542;2024-01-30T10:27:52;26.43;;;24.50;;
2019;SDS011;1014;51.960;8.542;2024-01-30T10:30:20;23.60;;;21.90;;
2019;SDS011;1014;51.960;8.542;2024-01-30T10:32:47;25.97;;;23.87;;
2019;SDS011;1014;51.960;8.542;2024-01-30T10:35:14;25.27;;;23.37;;
2019;SDS011;1014;51.960;8.542;2024-01-30T10:37:43;25.20;;;23.23;;
2019;SDS011;1014;51.960;8.542;2024-01-30T10:40:12;23.43;;;21.70;;
2019;SDS011;1014;51.960;8.542;2024-01-30T10:42:44;24.40;;;22.70;;
2019;SDS011;1014;51.960;8.542;2024-01-30T10:45:11;26.73;;;24.30;;
2019;SDS011;1014;51.960;8.542;2024-01-30T10:47:39;24.30;;;22.60;;
2019;SDS011;1014;51.960;8.542;2024-01-30T10:50:07;24.30;;;22.53;;
2019;SDS011;1014;51.960;8.542;2024-01-30T10:52:35;23.67;;;22.00;;
2019;SDS011;1014;51.960;8.542;2024-01-30T10:55:03;24.13;;;22.47;;
2019;SDS011;1014;51.960;8.542;2024-01-30T10:57:31;23.63;;;22.07;;
2019;SDS011;1014;51.960;8.542;2024-01-30T11:00:03;24.40;;;22.70;;
2019;SDS011;1014;51.960;8.542;2024-01-30T11:02:32;23.23;;;21.43;;
2019;SDS011;1014;51.960;8.542;2024-01-30T11:04:59;21.93;;;20.53;;
2019;SDS011;1014;51.960;8.542;2024-01-30T11:07:28;23.33;;;21.63;;
2019;SDS011;1014;51.960;8.542;2024-01-30T11:09:59;23.03;;;21.53;;
2019;SDS011;1014;51.960;8.542;2024-01-30T11:12:27;21.23;;;19.93;;
2019;SDS011;1014;51.960;8.542;2024-01-30T11:15:03;21.63;;;20.23;;
2019;SDS011;1014;51.960;8.542;2024-01-30T11:17:44;23.33;;;21.93;;
2019;SDS011;1014;51.960;8.542;2024-01-30T11:20:11;24.03;;;22.30;;
2019;SDS011;1014;51.960;8.542;2024-01-30T11:22:42;24.30;;;22.80;;
2019;SDS011;1014;51.960;8.542;2024-01-30T11:25:13;23.70;;;21.90;;
2019;SDS011;1014;51.960;8.542;2024-01-30T11:27:41;23.23;;;21.83;;
2019;SDS011;1014;51.960;8.542;2024-01-30T11:30:10;23.43;;;21.80;;
2019;SDS011;1014;51.960;8.542;2024-01-30T11:32:37;24.23;;;22.40;;
2019;SDS011;1014;51.960;8.542;2024-01-30T11:35:04;23.73;;;22.13;;
2019;SDS011;1014;51.960;8.542;2024-01-30T11:37:33;20.93;;;19.63;;
2019;SDS011;1014;51.960;8.542;2024-01-30T11:40:04;24.30;;;22.70;;
2019;SDS011;1014;51.960;8.542;2024-01-30T11:42:32;23.70;;;22.23;;
2019;SDS011;1014;51.960;8.542;2024-01-30T11:45:00;25.57;;;23.57;;
2019;SDS011;1014;51.960;8.542;2024-01-30T11:47:29;25.47;;;23.77;;
2019;SDS011;1014;51.960;8.542;2024-01-30T11:49:58;24.07;;;22.50;;
2019;SDS011;1014;51.960;8.542;2024-01-30T11:52:25;24.97;;;23.13;;
2019;SDS011;1014;51.960;8.542;2024-01-30T11:54:53;25.03;;;23.40;;
2019;SDS011;1014;51.960;8.542;2024-01-30T11:57:21;24.20;;;22.30;;
2019;SDS011;1014;51.960;8.542;2024-01-30T11:59:48;24.23;;;22.60;;
2019;SDS011;1014;51.960;8.542;2024-01-30T12:02:15;23.13;;;21.57;;
2019;SDS011;1014;51.960;8.542;2024-01-30T12:04:44;22.80;;;21.20;;
2019;SDS011;1014;51.960;8.542;2024-01-30T12:07:12;24.70;;;23.03;;
2019;SDS011;1014;51.960;8.542;2024-01-30T12:09:40;22.60;;;21.10;;
2019;SDS011;1014;51.960;8.542;2024-01-30T12:12:08;25.70;;;23.70;;
2019;SDS011;1014;51.960;8.542;2024-01-30T12:14:37;24.60;;;22.90;;
2019;SDS011;1014;51.960;8.542;2024-01-30T12:17:04;24.80;;;22.77;;
2019;SDS011;1014;51.960;8.542;2024-01-30T12:19:32;24.70;;;23.10;;
2019;SDS011;1014;51.960;8.542;2024-01-30T12:22:01;25.47;;;23.30;;
2019;SDS011;1014;51.960;8.542;2024-01-30T12:24:29;23.27;;;21.70;;
2019;SDS011;1014;51.960;8.542;2024-01-30T12:26:56;24.87;;;22.93;;
2019;SDS011;1014;51.960;8.542;2024-01-30T12:29:23;23.87;;;22.37;;
2019;SDS011;1014;51.960;8.542;2024-01-30T12:31:52;23.90;;;22.00;;
2019;SDS011;1014;51.960;8.542;2024-01-30T12:34:20;24.23;;;22.57;;
2019;SDS011;1014;51.960;8.542;2024-01-30T12:36:48;24.90;;;23.00;;
2019;SDS011;1014;51.960;8.542;2024-01-30T12:39:16;22.97;;;21.37;;
2019;SDS011;1014;51.960;8.542;2024-01-30T12:41:43;23.10;;;21.60;;
2019;SDS011;1014;51.960;8.542;2024-01-30T12:44:10;24.67;;;22.90;;
2019;SDS011;1014;51.960;8.542;2024-01-30T12:46:40;24.50;;;22.97;;
2019;SDS011;1014;51.960;8.542;2024-01-30T12:49:07;24.47;;;22.60;;
2019;SDS011;1014;51.960;8.542;2024-01-30T12:51:34;24.73;;;22.93;;
2019;SDS011;1014;51.960;8.542;2024-01-30T12:54:05;24.77;;;23.07;;
2019;SDS011;1014;51.960;8.542;2024-01-30T12:56:33;23.53;;;22.13;;
2019;SDS011;1014;51.960;8.542;2024-01-30T12:59:01;22.93;;;21.50;;
2019;SDS011;1014;51.960;8.542;2024-01-30T13:01:28;24.53;;;22.50;;
2019;SDS011;1014;51.960;8.542;2024-01-30T13:03:55;24.30;;;22.50;;
2019;SDS011;1014;51.960;8.542;2024-01-30T13:06:23;25.20;;;23.30;;
2019;SDS011;1014;51.960;8.542;2024-01-30T13:08:50;25.37;;;23.67;;
2019;SDS011;1014;51.960;8.542;2024-01-30T13:11:17;22.50;;;20.90;;
2019;SDS011;1014;51.960;8.542;2024-01-30T13:13:46;25.83;;;24.10;;
2019;SDS011;1014;51.960;8.542;2024-01-30T13:16:13;24.97;;;23.17;;
2019;SDS011;1014;51.960;8.542;2024-01-30T13:18:40;23.23;;;21.43;;
2019;SDS011;1014;51.960;8.542;2024-01-30T13:21:07;25.23;;;23.40;;
2019;SDS011;1014;51.960;8.542;2024-01-30T13:23:35;24.73;;;23.03;;
2019;SDS011;1014;51.960;8.542;2024-01-30T13:26:03;24.60;;;22.80;;
2019;SDS011;1014;51.960;8.542;2024-01-30T13:28:32;24.90;;;23.10;;
2019;SDS011;1014;51.960;8.542;2024-01-30T13:31:00;25.43;;;23.53;;
2019;SDS011;1014;51.960;8.542;2024-01-30T13:33:28;23.83;;;22.20;;
2019;SDS011;1014;51.960;8.542;2024-01-30T13:35:56;27.07;;;24.97;;
2019;SDS011;1014;51.960;8.542;2024-01-30T13:38:23;23.67;;;22.00;;
2019;SDS011;1014;51.960;8.542;2024-01-30T13:40:51;25.33;;;23.67;;
2019;SDS011;1014;51.960;8.542;2024-01-30T13:43:19;22.93;;;21.43;;
2019;SDS011;1014;51.960;8.542;2024-01-30T13:45:46;26.53;;;24.33;;
2019;SDS011;1014;51.960;8.542;2024-01-30T13:48:14;25.83;;;23.87;;
2019;SDS011;1014;51.960;8.542;2024-01-30T13:50:41;24.90;;;23.07;;
2019;SDS011;1014;51.960;8.542;2024-01-30T13:53:08;23.50;;;21.80;;
2019;SDS011;1014;51.960;8.542;2024-01-30T13:55:35;24.50;;;22.70;;
2019;SDS011;1014;51.960;8.542;2024-01-30T13:58:03;24.87;;;22.93;;
2019;SDS011;1014;51.960;8.542;2024-01-30T14:00:30;25.50;;;23.50;;
2019;SDS011;1014;51.960;8.542;2024-01-30T14:02:57;22.63;;;20.90;;
2019;SDS011;1014;51.960;8.542;2024-01-30T14:05:26;23.83;;;21.97;;
2019;SDS011;1014;51.960;8.542;2024-01-30T14:07:55;23.80;;;22.03;;
2019;SDS011;1014;51.960;8.542;2024-01-30T14:10:23;25.17;;;23.27;;
2019;SDS011;1014;51.960;8.542;2024-01-30T14:12:50;25.57;;;23.57;;
2019;SDS011;1014;51.960;8.542;2024-01-30T14:15:17;23.93;;;22.37;;
2019;SDS011;1014;51.960;8.542;2024-01-30T14:17:44;27.60;;;25.03;;
2019;SDS011;1014;51.960;8.542;2024-01-30T14:20:13;26.63;;;24.37;;
2019;SDS011;1014;51.960;8.542;2024-01-30T14:22:43;26.20;;;24.20;;
2019;SDS011;1014;51.960;8.542;2024-01-30T14:25:10;25.60;;;23.37;;
2019;SDS011;1014;51.960;8.542;2024-01-30T14:27:37;24.13;;;22.33;;
2019;SDS011;1014;51.960;8.542;2024-01-30T14:30:04;23.80;;;22.27;;
2019;SDS011;1014;51.960;8.542;2024-01-30T14:32:32;23.90;;;22.30;;
2019;SDS011;1014;51.960;8.542;2024-01-30T14:35:00;23.43;;;21.10;;
2019;SDS011;1014;51.960;8.542;2024-01-30T14:37:27;25.13;;;23.30;;
2019;SDS011;1014;51.960;8.542;2024-01-30T14:39:56;26.17;;;23.70;;
2019;SDS011;1014;51.960;8.542;2024-01-30T14:42:23;21.77;;;20.10;;
2019;SDS011;1014;51.960;8.542;2024-01-30T14:44:52;24.70;;;23.00;;
2019;SDS011;1014;51.960;8.542;2024-01-30T14:47:19;26.77;;;24.77;;
2019;SDS011;1014;51.960;8.542;2024-01-30T14:49:46;26.57;;;24.40;;
2019;SDS011;1014;51.960;8.542;2024-01-30T14:52:14;23.70;;;21.80;;